sensor_id;sensor_type;location;lat;lon;timestamp;P1;durP1;ratioP1;P2;durP2;ratioP2
51971;SDS011;37991;49.662;10.060;2022-10-31T00:01:59;8.40;;;4.82;;
51971;SDS011;37991;49.662;10.060;2022-10-31T00:04:24;10.30;;;5.82;;
51971;SDS011;37991;49.662;10.060;2022-10-31T00:06:49;10.98;;;5.25;;
51971;SDS011;37991;49.662;10.060;2022-10-31T00:09:15;10.35;;;4.75;;
51971;SDS011;37991;49.662;10.060;2022-10-31T00:11:40;15.15;;;5.57;;
51971;SDS011;37991;49.662;10.060;2022-10-31T00:14:05;6.43;;;4.07;;
51971;SDS011;37991;49.662;10.060;2022-10-31T00:16:31;9.52;;;4.65;;
51971;SDS011;37991;49.662;10.060;2022-10-31T00:18:58;11.63;;;4.78;;
51971;SDS011;37991;49.662;10.060;2022-10-31T00:21:25;14.02;;;5.30;;
51971;SDS011;37991;49.662;10.060;2022-10-31T00:23:51;9.13;;;4.20;;
51971;SDS011;37991;49.662;10.060;2022-10-31T00:26:17;8.10;;;4.88;;
51971;SDS011;37991;49.662;10.060;2022-10-31T00:28:43;8.05;;;5.03;;
51971;SDS011;37991;49.662;10.060;2022-10-31T00:31:09;9.95;;;4.70;;
51971;SDS011;37991;49.662;10.060;2022-10-31T00:33:36;9.27;;;5.25;;
51971;SDS011;37991;49.662;10.060;2022-10-31T00:36:04;8.00;;;4.57;;
51971;SDS011;37991;49.662;10.060;2022-10-31T00:38:31;7.15;;;4.35;;
51971;SDS011;37991;49.662;10.060;2022-10-31T00:40:57;15.55;;;4.97;;
51971;SDS011;37991;49.662;10.060;2022-10-31T00:43:22;12.13;;;5.15;;
51971;SDS011;37991;49.662;10.060;2022-10-31T00:45:48;7.70;;;4.03;;
51971;SDS011;37991;49.662;10.060;2022-10-31T00:48:13;8.80;;;4.18;;
51971;SDS011;37991;49.662;10.060;2022-10-31T00:50:38;9.77;;;4.60;;
51971;SDS011;37991;49.662;10.060;2022-10-31T00:53:05;5.88;;;3.88;;
51971;SDS011;37991;49.662;10.060;2022-10-31T00:55:30;8.07;;;4.57;;
51971;SDS011;37991;49.662;10.060;2022-10-31T00:57:56;7.97;;;4.05;;
51971;SDS011;37991;49.662;10.060;2022-10-31T01:00:21;6.07;;;4.03;;
51971;SDS011;37991;49.662;10.060;2022-10-31T01:02:48;9.23;;;3.97;;
51971;SDS011;37991;49.662;10.060;2022-10-31T01:05:13;7.45;;;3.92;;
51971;SDS011;37991;49.662;10.060;2022-10-31T01:07:39;6.18;;;3.80;;
51971;SDS011;37991;49.662;10.060;2022-10-31T01:10:08;7.18;;;4.28;;
51971;SDS011;37991;49.662;10.060;2022-10-31T01:12:38;8.02;;;4.43;;
51971;SDS011;37991;49.662;10.060;2022-10-31T01:15:05;5.80;;;4.32;;
51971;SDS011;37991;49.662;10.060;2022-10-31T01:17:33;7.45;;;4.50;;
51971;SDS011;37991;49.662;10.060;2022-10-31T01:19:59;7.30;;;4.60;;
51971;SDS011;37991;49.662;10.060;2022-10-31T01:22:26;7.25;;;4.32;;
51971;SDS011;37991;49.662;10.060;2022-10-31T01:24:51;7.80;;;3.80;;
51971;SDS011;37991;49.662;10.060;2022-10-31T01:27:18;5.32;;;3.90;;
51971;SDS011;37991;49.662;10.060;2022-10-31T01:29:44;6.10;;;4.50;;
51971;SDS011;37991;49.662;10.060;2022-10-31T01:32:10;6.15;;;3.78;;
51971;SDS011;37991;49.662;10.060;2022-10-31T01:34:35;5.72;;;3.70;;
51971;SDS011;37991;49.662;10.060;2022-10-31T01:37:00;6.65;;;3.72;;
51971;SDS011;37991;49.662;10.060;2022-10-31T01:39:26;6.25;;;4.30;;
51971;SDS011;37991;49.662;10.060;2022-10-31T01:41:52;5.38;;;4.10;;
51971;SDS011;37991;49.662;10.060;2022-10-31T01:46:44;4.78;;;3.67;;
51971;SDS011;37991;49.662;10.060;2022-10-31T01:49:17;8.25;;;4.03;;
51971;SDS011;37991;49.662;10.060;2022-10-31T01:51:48;7.38;;;3.50;;
51971;SDS011;37991;49.662;10.060;2022-10-31T01:54:20;4.30;;;3.47;;
51971;SDS011;37991;49.662;10.060;2022-10-31T01:56:48;6.72;;;3.95;;
51971;SDS011;37991;49.662;10.060;2022-10-31T01:59:18;4.85;;;3.25;;
51971;SDS011;37991;49.662;10.060;2022-10-31T02:01:46;6.18;;;3.70;;
51971;SDS011;37991;49.662;10.060;2022-10-31T02:04:12;4.07;;;3.20;;
51971;SDS011;37991;49.662;10.060;2022-10-31T02:06:49;5.13;;;3.45;;
51971;SDS011;37991;49.662;10.060;2022-10-31T02:09:18;5.18;;;3.70;;
51971;SDS011;37991;49.662;10.060;2022-10-31T02:11:48;4.88;;;3.33;;
51971;SDS011;37991;49.662;10.060;2022-10-31T02:14:17;4.57;;;3.47;;
51971;SDS011;37991;49.662;10.060;2022-10-31T02:16:43;8.85;;;3.95;;
51971;SDS011;37991;49.662;10.060;2022-10-31T02:19:09;4.03;;;3.22;;
51971;SDS011;37991;49.662;10.060;2022-10-31T02:21:54;5.73;;;3.80;;
51971;SDS011;37991;49.662;10.060;2022-10-31T02:34:57;13.63;;;3.97;;
51971;SDS011;37991;49.662;10.060;2022-10-31T02:40:25;4.85;;;3.35;;
51971;SDS011;37991;49.662;10.060;2022-10-31T02:43:44;7.13;;;3.95;;
51971;SDS011;37991;49.662;10.060;2022-10-31T02:46:08;6.55;;;4.20;;
51971;SDS011;37991;49.662;10.060;2022-10-31T02:48:40;5.80;;;3.40;;
51971;SDS011;37991;49.662;10.060;2022-10-31T02:51:09;8.20;;;3.72;;
51971;SDS011;37991;49.662;10.060;2022-10-31T02:53:36;5.93;;;3.88;;
51971;SDS011;37991;49.662;10.060;2022-10-31T02:56:08;5.80;;;3.90;;
51971;SDS011;37991;49.662;10.060;2022-10-31T02:58:39;5.25;;;3.70;;
51971;SDS011;37991;49.662;10.060;2022-10-31T03:01:14;5.18;;;3.80;;
51971;SDS011;37991;49.662;10.060;2022-10-31T03:04:04;5.68;;;3.85;;
51971;SDS011;37991;49.662;10.060;2022-10-31T03:06:52;6.05;;;3.38;;
51971;SDS011;37991;49.662;10.060;2022-10-31T03:12:24;4.25;;;3.40;;
51971;SDS011;37991;49.662;10.060;2022-10-31T03:17:26;6.25;;;3.47;;
51971;SDS011;37991;49.662;10.060;2022-10-31T03:19:58;5.00;;;3.42;;
51971;SDS011;37991;49.662;10.060;2022-10-31T03:22:27;7.10;;;3.10;;
51971;SDS011;37991;49.662;10.060;2022-10-31T03:24:57;6.07;;;4.18;;
51971;SDS011;37991;49.662;10.060;2022-10-31T03:27:27;5.95;;;3.47;;
51971;SDS011;37991;49.662;10.060;2022-10-31T03:29:58;5.28;;;3.30;;
51971;SDS011;37991;49.662;10.060;2022-10-31T03:32:41;6.07;;;3.72;;
51971;SDS011;37991;49.662;10.060;2022-10-31T03:35:21;7.53;;;3.55;;
51971;SDS011;37991;49.662;10.060;2022-10-31T03:37:49;10.43;;;3.42;;
51971;SDS011;37991;49.662;10.060;2022-10-31T03:40:17;9.25;;;3.85;;
51971;SDS011;37991;49.662;10.060;2022-10-31T03:42:53;8.88;;;3.78;;
51971;SDS011;37991;49.662;10.060;2022-10-31T03:45:23;7.78;;;3.50;;
51971;SDS011;37991;49.662;10.060;2022-10-31T03:47:51;7.30;;;3.60;;
51971;SDS011;37991;49.662;10.060;2022-10-31T03:50:18;5.22;;;3.40;;
51971;SDS011;37991;49.662;10.060;2022-10-31T03:58:05;4.75;;;3.33;;
51971;SDS011;37991;49.662;10.060;2022-10-31T04:00:36;5.68;;;3.13;;
51971;SDS011;37991;49.662;10.060;2022-10-31T04:03:11;6.28;;;3.33;;
51971;SDS011;37991;49.662;10.060;2022-10-31T04:05:42;5.95;;;3.70;;
51971;SDS011;37991;49.662;10.060;2022-10-31T04:08:13;5.95;;;3.40;;
51971;SDS011;37991;49.662;10.060;2022-10-31T04:10:42;5.80;;;3.38;;
51971;SDS011;37991;49.662;10.060;2022-10-31T04:13:13;8.80;;;3.50;;
51971;SDS011;37991;49.662;10.060;2022-10-31T04:15:49;6.70;;;3.55;;
51971;SDS011;37991;49.662;10.060;2022-10-31T04:18:17;11.10;;;3.78;;
51971;SDS011;37991;49.662;10.060;2022-10-31T04:20:43;8.63;;;3.50;;
51971;SDS011;37991;49.662;10.060;2022-10-31T04:25:44;12.40;;;4.13;;
51971;SDS011;37991;49.662;10.060;2022-10-31T04:28:10;9.80;;;3.45;;
51971;SDS011;37991;49.662;10.060;2022-10-31T04:30:36;6.13;;;3.92;;
51971;SDS011;37991;49.662;10.060;2022-10-31T04:33:01;8.23;;;4.32;;
51971;SDS011;37991;49.662;10.060;2022-10-31T04:35:26;10.15;;;3.85;;
51971;SDS011;37991;49.662;10.060;2022-10-31T04:37:53;5.55;;;3.42;;
51971;SDS011;37991;49.662;10.060;2022-10-31T04:40:19;8.93;;;3.80;;
51971;SDS011;37991;49.662;10.060;2022-10-31T04:43:02;8.90;;;3.53;;
51971;SDS011;37991;49.662;10.060;2022-10-31T04:45:28;7.85;;;3.80;;
51971;SDS011;37991;49.662;10.060;2022-10-31T04:47:54;6.13;;;3.72;;
51971;SDS011;37991;49.662;10.060;2022-10-31T04:50:19;9.10;;;4.60;;
51971;SDS011;37991;49.662;10.060;2022-10-31T04:52:46;9.30;;;4.13;;
51971;SDS011;37991;49.662;10.060;2022-10-31T04:55:15;9.43;;;4.40;;
51971;SDS011;37991;49.662;10.060;2022-10-31T04:57:49;10.15;;;4.60;;
51971;SDS011;37991;49.662;10.060;2022-10-31T05:00:17;9.93;;;4.53;;
51971;SDS011;37991;49.662;10.060;2022-10-31T05:02:49;14.13;;;4.38;;
51971;SDS011;37991;49.662;10.060;2022-10-31T05:05:17;9.93;;;4.03;;
51971;SDS011;37991;49.662;10.060;2022-10-31T05:07:45;10.32;;;4.47;;
51971;SDS011;37991;49.662;10.060;2022-10-31T05:10:12;9.18;;;4.15;;
51971;SDS011;37991;49.662;10.060;2022-10-31T05:12:47;8.90;;;4.00;;
51971;SDS011;37991;49.662;10.060;2022-10-31T05:15:33;12.63;;;3.95;;
51971;SDS011;37991;49.662;10.060;2022-10-31T05:18:17;9.75;;;4.40;;
51971;SDS011;37991;49.662;10.060;2022-10-31T05:21:14;9.50;;;3.78;;
51971;SDS011;37991;49.662;10.060;2022-10-31T05:23:46;10.07;;;4.00;;
51971;SDS011;37991;49.662;10.060;2022-10-31T05:26:13;6.20;;;3.72;;
51971;SDS011;37991;49.662;10.060;2022-10-31T05:28:39;6.00;;;4.10;;
51971;SDS011;37991;49.662;10.060;2022-10-31T05:31:04;6.05;;;3.80;;
51971;SDS011;37991;49.662;10.060;2022-10-31T05:33:30;5.88;;;3.97;;
51971;SDS011;37991;49.662;10.060;2022-10-31T05:36:01;8.98;;;4.15;;
51971;SDS011;37991;49.662;10.060;2022-10-31T05:38:50;8.80;;;4.10;;
51971;SDS011;37991;49.662;10.060;2022-10-31T05:41:29;10.65;;;4.15;;
51971;SDS011;37991;49.662;10.060;2022-10-31T05:44:03;11.05;;;4.10;;
51971;SDS011;37991;49.662;10.060;2022-10-31T05:46:32;13.27;;;4.90;;
51971;SDS011;37991;49.662;10.060;2022-10-31T05:49:16;10.95;;;4.10;;
51971;SDS011;37991;49.662;10.060;2022-10-31T05:52:01;13.10;;;4.20;;
51971;SDS011;37991;49.662;10.060;2022-10-31T05:54:36;11.13;;;5.10;;
51971;SDS011;37991;49.662;10.060;2022-10-31T05:57:01;23.48;;;4.72;;
51971;SDS011;37991;49.662;10.060;2022-10-31T05:59:26;14.82;;;4.60;;
51971;SDS011;37991;49.662;10.060;2022-10-31T06:01:52;12.85;;;4.38;;
51971;SDS011;37991;49.662;10.060;2022-10-31T06:04:37;8.27;;;4.38;;
51971;SDS011;37991;49.662;10.060;2022-10-31T06:07:03;9.88;;;4.40;;
51971;SDS011;37991;49.662;10.060;2022-10-31T06:09:29;11.02;;;4.65;;
51971;SDS011;37991;49.662;10.060;2022-10-31T06:11:54;11.65;;;4.13;;
51971;SDS011;37991;49.662;10.060;2022-10-31T06:14:22;6.13;;;4.13;;
51971;SDS011;37991;49.662;10.060;2022-10-31T06:16:51;9.32;;;3.70;;
51971;SDS011;37991;49.662;10.060;2022-10-31T06:19:38;5.30;;;3.83;;
51971;SDS011;37991;49.662;10.060;2022-10-31T06:22:04;4.38;;;3.50;;
51971;SDS011;37991;49.662;10.060;2022-10-31T06:24:31;3.88;;;3.08;;
51971;SDS011;37991;49.662;10.060;2022-10-31T06:27:03;6.20;;;3.15;;
51971;SDS011;37991;49.662;10.060;2022-10-31T06:29:30;5.72;;;3.25;;
51971;SDS011;37991;49.662;10.060;2022-10-31T06:32:03;3.40;;;2.83;;
51971;SDS011;37991;49.662;10.060;2022-10-31T06:34:30;4.32;;;3.30;;
51971;SDS011;37991;49.662;10.060;2022-10-31T06:36:56;6.20;;;3.60;;
51971;SDS011;37991;49.662;10.060;2022-10-31T06:39:24;4.10;;;3.40;;
51971;SDS011;37991;49.662;10.060;2022-10-31T06:41:49;7.57;;;3.50;;
51971;SDS011;37991;49.662;10.060;2022-10-31T06:44:18;5.13;;;3.45;;
51971;SDS011;37991;49.662;10.060;2022-10-31T06:46:58;6.97;;;3.35;;
51971;SDS011;37991;49.662;10.060;2022-10-31T06:49:40;9.10;;;4.13;;
51971;SDS011;37991;49.662;10.060;2022-10-31T06:52:14;4.83;;;3.70;;
51971;SDS011;37991;49.662;10.060;2022-10-31T06:54:40;6.05;;;4.13;;
51971;SDS011;37991;49.662;10.060;2022-10-31T06:57:05;9.57;;;4.50;;
51971;SDS011;37991;49.662;10.060;2022-10-31T06:59:31;16.42;;;5.30;;
51971;SDS011;37991;49.662;10.060;2022-10-31T07:02:09;11.75;;;5.82;;
51971;SDS011;37991;49.662;10.060;2022-10-31T07:04:35;14.77;;;5.82;;
51971;SDS011;37991;49.662;10.060;2022-10-31T07:07:01;15.25;;;5.63;;
51971;SDS011;37991;49.662;10.060;2022-10-31T07:09:26;12.90;;;5.80;;
51971;SDS011;37991;49.662;10.060;2022-10-31T07:11:53;20.75;;;6.40;;
51971;SDS011;37991;49.662;10.060;2022-10-31T07:14:19;19.27;;;5.72;;
51971;SDS011;37991;49.662;10.060;2022-10-31T07:16:47;19.02;;;4.82;;
51971;SDS011;37991;49.662;10.060;2022-10-31T07:19:15;10.70;;;4.78;;
51971;SDS011;37991;49.662;10.060;2022-10-31T07:21:41;16.05;;;5.20;;
51971;SDS011;37991;49.662;10.060;2022-10-31T07:24:08;28.85;;;5.25;;
51971;SDS011;37991;49.662;10.060;2022-10-31T07:26:43;24.05;;;4.57;;
51971;SDS011;37991;49.662;10.060;2022-10-31T07:29:12;21.75;;;4.70;;
51971;SDS011;37991;49.662;10.060;2022-10-31T07:31:37;10.57;;;4.63;;
51971;SDS011;37991;49.662;10.060;2022-10-31T07:34:09;16.95;;;4.57;;
51971;SDS011;37991;49.662;10.060;2022-10-31T07:36:53;14.90;;;4.53;;
51971;SDS011;37991;49.662;10.060;2022-10-31T07:39:19;12.00;;;5.30;;
51971;SDS011;37991;49.662;10.060;2022-10-31T07:41:44;22.23;;;7.10;;
51971;SDS011;37991;49.662;10.060;2022-10-31T07:44:10;25.85;;;8.05;;
51971;SDS011;37991;49.662;10.060;2022-10-31T07:47:01;35.63;;;9.00;;
51971;SDS011;37991;49.662;10.060;2022-10-31T07:49:45;27.23;;;8.75;;
51971;SDS011;37991;49.662;10.060;2022-10-31T07:52:36;43.63;;;11.90;;
51971;SDS011;37991;49.662;10.060;2022-10-31T07:55:34;50.13;;;15.88;;
51971;SDS011;37991;49.662;10.060;2022-10-31T08:00:37;41.92;;;15.10;;
51971;SDS011;37991;49.662;10.060;2022-10-31T08:05:49;37.80;;;14.55;;
51971;SDS011;37991;49.662;10.060;2022-10-31T08:08:31;52.80;;;14.02;;
51971;SDS011;37991;49.662;10.060;2022-10-31T08:10:57;53.25;;;12.35;;
51971;SDS011;37991;49.662;10.060;2022-10-31T08:13:23;31.67;;;11.60;;
51971;SDS011;37991;49.662;10.060;2022-10-31T08:15:49;41.70;;;13.13;;
51971;SDS011;37991;49.662;10.060;2022-10-31T08:18:20;40.40;;;13.13;;
51971;SDS011;37991;49.662;10.060;2022-10-31T08:20:48;32.55;;;13.05;;
51971;SDS011;37991;49.662;10.060;2022-10-31T08:23:14;30.38;;;12.20;;
51971;SDS011;37991;49.662;10.060;2022-10-31T08:25:41;22.75;;;9.77;;
51971;SDS011;37991;49.662;10.060;2022-10-31T08:28:08;19.67;;;7.55;;
51971;SDS011;37991;49.662;10.060;2022-10-31T08:30:36;22.17;;;7.38;;
51971;SDS011;37991;49.662;10.060;2022-10-31T08:33:21;13.60;;;7.50;;
51971;SDS011;37991;49.662;10.060;2022-10-31T08:36:09;34.42;;;8.57;;
51971;SDS011;37991;49.662;10.060;2022-10-31T08:38:52;17.33;;;8.50;;
51971;SDS011;37991;49.662;10.060;2022-10-31T08:41:18;20.60;;;6.93;;
51971;SDS011;37991;49.662;10.060;2022-10-31T08:43:43;10.88;;;5.20;;
51971;SDS011;37991;49.662;10.060;2022-10-31T08:46:09;7.40;;;5.10;;
51971;SDS011;37991;49.662;10.060;2022-10-31T08:48:38;10.32;;;5.57;;
51971;SDS011;37991;49.662;10.060;2022-10-31T08:51:03;15.93;;;5.45;;
51971;SDS011;37991;49.662;10.060;2022-10-31T08:53:29;10.55;;;5.55;;
51971;SDS011;37991;49.662;10.060;2022-10-31T08:56:15;11.52;;;5.40;;
51971;SDS011;37991;49.662;10.060;2022-10-31T08:58:40;9.63;;;5.70;;
51971;SDS011;37991;49.662;10.060;2022-10-31T09:01:07;10.10;;;5.60;;
51971;SDS011;37991;49.662;10.060;2022-10-31T09:03:34;8.32;;;5.03;;
51971;SDS011;37991;49.662;10.060;2022-10-31T09:06:01;8.32;;;5.20;;
51971;SDS011;37991;49.662;10.060;2022-10-31T09:08:31;9.13;;;5.72;;
51971;SDS011;37991;49.662;10.060;2022-10-31T09:11:00;10.60;;;5.30;;
51971;SDS011;37991;49.662;10.060;2022-10-31T09:14:04;7.57;;;4.68;;
51971;SDS011;37991;49.662;10.060;2022-10-31T09:17:01;7.30;;;4.82;;
51971;SDS011;37991;49.662;10.060;2022-10-31T09:19:43;11.75;;;5.53;;
51971;SDS011;37991;49.662;10.060;2022-10-31T09:22:08;8.95;;;5.18;;
51971;SDS011;37991;49.662;10.060;2022-10-31T09:24:34;11.25;;;6.65;;
51971;SDS011;37991;49.662;10.060;2022-10-31T09:26:59;8.95;;;6.00;;
51971;SDS011;37991;49.662;10.060;2022-10-31T09:29:27;8.93;;;5.55;;
51971;SDS011;37991;49.662;10.060;2022-10-31T09:31:57;8.77;;;5.65;;
51971;SDS011;37991;49.662;10.060;2022-10-31T09:34:25;13.48;;;5.65;;
51971;SDS011;37991;49.662;10.060;2022-10-31T09:37:10;10.88;;;5.97;;
51971;SDS011;37991;49.662;10.060;2022-10-31T09:39:35;9.32;;;5.97;;
51971;SDS011;37991;49.662;10.060;2022-10-31T09:45:18;14.23;;;5.82;;
51971;SDS011;37991;49.662;10.060;2022-10-31T09:51:03;12.23;;;6.07;;
51971;SDS011;37991;49.662;10.060;2022-10-31T09:53:42;13.40;;;6.53;;
51971;SDS011;37991;49.662;10.060;2022-10-31T09:56:17;8.93;;;6.22;;
51971;SDS011;37991;49.662;10.060;2022-10-31T09:58:47;10.80;;;6.15;;
51971;SDS011;37991;49.662;10.060;2022-10-31T10:01:19;10.50;;;6.47;;
51971;SDS011;37991;49.662;10.060;2022-10-31T10:04:13;11.68;;;6.32;;
51971;SDS011;37991;49.662;10.060;2022-10-31T10:16:12;11.73;;;6.50;;
51971;SDS011;37991;49.662;10.060;2022-10-31T10:24:17;12.57;;;6.55;;
51971;SDS011;37991;49.662;10.060;2022-10-31T10:29:42;12.55;;;6.85;;
51971;SDS011;37991;49.662;10.060;2022-10-31T10:32:26;9.88;;;6.68;;
51971;SDS011;37991;49.662;10.060;2022-10-31T10:34:54;13.32;;;7.30;;
51971;SDS011;37991;49.662;10.060;2022-10-31T10:37:31;12.60;;;6.85;;
51971;SDS011;37991;49.662;10.060;2022-10-31T10:40:07;11.70;;;6.55;;
51971;SDS011;37991;49.662;10.060;2022-10-31T10:42:39;12.70;;;7.32;;
51971;SDS011;37991;49.662;10.060;2022-10-31T10:45:23;10.97;;;6.77;;
51971;SDS011;37991;49.662;10.060;2022-10-31T10:48:25;11.70;;;6.55;;
51971;SDS011;37991;49.662;10.060;2022-10-31T10:51:04;14.48;;;6.45;;
51971;SDS011;37991;49.662;10.060;2022-10-31T10:53:44;12.73;;;6.55;;
51971;SDS011;37991;49.662;10.060;2022-10-31T10:59:18;12.25;;;6.40;;
51971;SDS011;37991;49.662;10.060;2022-10-31T11:01:45;12.13;;;6.70;;
51971;SDS011;37991;49.662;10.060;2022-10-31T11:04:31;11.68;;;6.68;;
51971;SDS011;37991;49.662;10.060;2022-10-31T11:06:59;12.48;;;8.25;;
51971;SDS011;37991;49.662;10.060;2022-10-31T11:09:26;11.80;;;8.23;;
51971;SDS011;37991;49.662;10.060;2022-10-31T11:11:51;12.68;;;7.55;;
51971;SDS011;37991;49.662;10.060;2022-10-31T11:14:17;10.30;;;6.47;;
51971;SDS011;37991;49.662;10.060;2022-10-31T11:16:44;13.68;;;6.82;;
51971;SDS011;37991;49.662;10.060;2022-10-31T11:19:15;10.63;;;6.80;;
51971;SDS011;37991;49.662;10.060;2022-10-31T11:21:41;11.20;;;6.68;;
51971;SDS011;37991;49.662;10.060;2022-10-31T11:26:39;12.60;;;6.25;;
51971;SDS011;37991;49.662;10.060;2022-10-31T11:29:17;12.02;;;6.15;;
51971;SDS011;37991;49.662;10.060;2022-10-31T11:31:46;11.48;;;6.88;;
51971;SDS011;37991;49.662;10.060;2022-10-31T11:34:20;12.80;;;7.03;;
51971;SDS011;37991;49.662;10.060;2022-10-31T11:36:52;10.27;;;6.53;;
51971;SDS011;37991;49.662;10.060;2022-10-31T11:39:22;11.50;;;6.80;;
51971;SDS011;37991;49.662;10.060;2022-10-31T11:41:50;13.80;;;7.18;;
51971;SDS011;37991;49.662;10.060;2022-10-31T11:44:18;11.52;;;7.38;;
51971;SDS011;37991;49.662;10.060;2022-10-31T11:46:54;14.93;;;7.80;;
51971;SDS011;37991;49.662;10.060;2022-10-31T11:49:25;11.82;;;7.45;;
51971;SDS011;37991;49.662;10.060;2022-10-31T11:51:56;13.27;;;7.57;;
51971;SDS011;37991;49.662;10.060;2022-10-31T11:54:29;13.00;;;7.55;;
51971;SDS011;37991;49.662;10.060;2022-10-31T11:56:57;16.02;;;7.82;;
51971;SDS011;37991;49.662;10.060;2022-10-31T11:59:25;12.77;;;7.57;;
51971;SDS011;37991;49.662;10.060;2022-10-31T12:01:55;11.50;;;7.72;;
51971;SDS011;37991;49.662;10.060;2022-10-31T12:07:26;12.68;;;6.93;;
51971;SDS011;37991;49.662;10.060;2022-10-31T12:09:51;12.15;;;7.10;;
51971;SDS011;37991;49.662;10.060;2022-10-31T12:26:07;16.08;;;8.00;;
51971;SDS011;37991;49.662;10.060;2022-10-31T12:34:16;14.25;;;8.05;;
51971;SDS011;37991;49.662;10.060;2022-10-31T12:37:00;12.40;;;7.68;;
51971;SDS011;37991;49.662;10.060;2022-10-31T12:42:41;14.13;;;7.95;;
51971;SDS011;37991;49.662;10.060;2022-10-31T12:45:49;13.40;;;8.43;;
51971;SDS011;37991;49.662;10.060;2022-10-31T12:48:38;14.80;;;8.15;;
51971;SDS011;37991;49.662;10.060;2022-10-31T12:54:29;19.83;;;9.07;;
51971;SDS011;37991;49.662;10.060;2022-10-31T12:59:53;15.82;;;8.60;;
51971;SDS011;37991;49.662;10.060;2022-10-31T13:05:02;15.40;;;7.88;;
51971;SDS011;37991;49.662;10.060;2022-10-31T13:07:43;15.50;;;8.18;;
51971;SDS011;37991;49.662;10.060;2022-10-31T13:10:16;12.95;;;7.88;;
51971;SDS011;37991;49.662;10.060;2022-10-31T13:12:42;12.38;;;7.95;;
51971;SDS011;37991;49.662;10.060;2022-10-31T13:17:54;15.18;;;7.95;;
51971;SDS011;37991;49.662;10.060;2022-10-31T13:23:04;14.85;;;8.52;;
51971;SDS011;37991;49.662;10.060;2022-10-31T13:25:38;14.32;;;8.13;;
51971;SDS011;37991;49.662;10.060;2022-10-31T13:30:50;15.32;;;7.93;;
51971;SDS011;37991;49.662;10.060;2022-10-31T13:33:18;16.73;;;8.98;;
51971;SDS011;37991;49.662;10.060;2022-10-31T13:35:54;13.57;;;7.95;;
51971;SDS011;37991;49.662;10.060;2022-10-31T13:38:32;15.45;;;8.82;;
51971;SDS011;37991;49.662;10.060;2022-10-31T13:44:03;14.30;;;8.60;;
51971;SDS011;37991;49.662;10.060;2022-10-31T13:46:37;17.63;;;8.80;;
51971;SDS011;37991;49.662;10.060;2022-10-31T13:49:21;13.02;;;7.80;;
51971;SDS011;37991;49.662;10.060;2022-10-31T13:51:50;13.75;;;7.82;;
51971;SDS011;37991;49.662;10.060;2022-10-31T13:54:31;14.00;;;8.23;;
51971;SDS011;37991;49.662;10.060;2022-10-31T13:56:58;16.73;;;8.93;;
51971;SDS011;37991;49.662;10.060;2022-10-31T13:59:25;15.98;;;8.73;;
51971;SDS011;37991;49.662;10.060;2022-10-31T14:01:54;16.95;;;8.68;;
51971;SDS011;37991;49.662;10.060;2022-10-31T14:04:38;16.15;;;8.15;;
51971;SDS011;37991;49.662;10.060;2022-10-31T14:07:12;15.90;;;8.68;;
51971;SDS011;37991;49.662;10.060;2022-10-31T14:09:54;16.80;;;9.57;;
51971;SDS011;37991;49.662;10.060;2022-10-31T14:12:33;14.77;;;8.75;;
51971;SDS011;37991;49.662;10.060;2022-10-31T14:15:13;20.33;;;9.00;;
51971;SDS011;37991;49.662;10.060;2022-10-31T14:17:46;18.30;;;9.38;;
51971;SDS011;37991;49.662;10.060;2022-10-31T14:22:40;20.80;;;10.15;;
51971;SDS011;37991;49.662;10.060;2022-10-31T14:27:55;22.05;;;9.73;;
51971;SDS011;37991;49.662;10.060;2022-10-31T14:30:23;18.08;;;9.43;;
51971;SDS011;37991;49.662;10.060;2022-10-31T14:32:53;20.92;;;9.38;;
51971;SDS011;37991;49.662;10.060;2022-10-31T14:35:23;20.50;;;10.65;;
51971;SDS011;37991;49.662;10.060;2022-10-31T14:38:15;23.00;;;10.65;;
51971;SDS011;37991;49.662;10.060;2022-10-31T14:41:04;20.38;;;9.80;;
51971;SDS011;37991;49.662;10.060;2022-10-31T14:43:48;18.35;;;9.90;;
51971;SDS011;37991;49.662;10.060;2022-10-31T14:49:25;18.90;;;9.73;;
51971;SDS011;37991;49.662;10.060;2022-10-31T14:52:20;15.55;;;8.85;;
51971;SDS011;37991;49.662;10.060;2022-10-31T14:54:48;19.02;;;9.18;;
51971;SDS011;37991;49.662;10.060;2022-10-31T14:57:26;16.95;;;9.20;;
51971;SDS011;37991;49.662;10.060;2022-10-31T14:59:58;16.05;;;8.70;;
51971;SDS011;37991;49.662;10.060;2022-10-31T15:02:42;18.63;;;10.10;;
51971;SDS011;37991;49.662;10.060;2022-10-31T15:05:11;20.05;;;9.50;;
51971;SDS011;37991;49.662;10.060;2022-10-31T15:07:48;15.73;;;9.23;;
51971;SDS011;37991;49.662;10.060;2022-10-31T15:10:21;18.40;;;10.18;;
51971;SDS011;37991;49.662;10.060;2022-10-31T15:12:46;16.38;;;9.57;;
51971;SDS011;37991;49.662;10.060;2022-10-31T15:15:12;17.05;;;9.77;;
51971;SDS011;37991;49.662;10.060;2022-10-31T15:17:42;16.40;;;9.32;;
51971;SDS011;37991;49.662;10.060;2022-10-31T15:20:16;18.00;;;9.10;;
51971;SDS011;37991;49.662;10.060;2022-10-31T15:22:47;20.70;;;9.88;;
51971;SDS011;37991;49.662;10.060;2022-10-31T15:25:20;15.68;;;8.80;;
51971;SDS011;37991;49.662;10.060;2022-10-31T15:27:48;16.60;;;9.00;;
51971;SDS011;37991;49.662;10.060;2022-10-31T15:32:48;16.83;;;9.95;;
51971;SDS011;37991;49.662;10.060;2022-10-31T15:35:27;16.13;;;9.27;;
51971;SDS011;37991;49.662;10.060;2022-10-31T15:37:54;17.58;;;9.13;;
51971;SDS011;37991;49.662;10.060;2022-10-31T15:40:22;16.60;;;9.77;;
51971;SDS011;37991;49.662;10.060;2022-10-31T15:42:57;21.27;;;9.25;;
51971;SDS011;37991;49.662;10.060;2022-10-31T15:45:26;15.05;;;8.30;;
51971;SDS011;37991;49.662;10.060;2022-10-31T15:48:13;15.15;;;8.57;;
51971;SDS011;37991;49.662;10.060;2022-10-31T15:50:45;17.80;;;9.27;;
51971;SDS011;37991;49.662;10.060;2022-10-31T15:53:15;17.98;;;9.43;;
51971;SDS011;37991;49.662;10.060;2022-10-31T15:55:49;19.75;;;9.90;;
51971;SDS011;37991;49.662;10.060;2022-10-31T15:58:19;22.08;;;10.65;;
51971;SDS011;37991;49.662;10.060;2022-10-31T16:00:45;21.50;;;11.07;;
51971;SDS011;37991;49.662;10.060;2022-10-31T16:03:27;21.63;;;10.50;;
51971;SDS011;37991;49.662;10.060;2022-10-31T16:05:55;19.63;;;10.23;;
51971;SDS011;37991;49.662;10.060;2022-10-31T16:08:31;20.52;;;10.30;;
51971;SDS011;37991;49.662;10.060;2022-10-31T16:13:33;18.55;;;9.55;;
51971;SDS011;37991;49.662;10.060;2022-10-31T16:16:02;22.77;;;12.52;;
51971;SDS011;37991;49.662;10.060;2022-10-31T16:18:36;20.02;;;11.90;;
51971;SDS011;37991;49.662;10.060;2022-10-31T16:21:02;18.17;;;9.95;;
51971;SDS011;37991;49.662;10.060;2022-10-31T16:23:28;17.50;;;9.10;;
51971;SDS011;37991;49.662;10.060;2022-10-31T16:25:54;19.83;;;10.70;;
51971;SDS011;37991;49.662;10.060;2022-10-31T16:28:23;17.98;;;9.77;;
51971;SDS011;37991;49.662;10.060;2022-10-31T16:30:50;27.40;;;10.30;;
51971;SDS011;37991;49.662;10.060;2022-10-31T16:33:33;19.33;;;9.90;;
51971;SDS011;37991;49.662;10.060;2022-10-31T16:36:13;24.08;;;9.90;;
51971;SDS011;37991;49.662;10.060;2022-10-31T16:38:52;23.92;;;11.02;;
51971;SDS011;37991;49.662;10.060;2022-10-31T16:41:18;20.88;;;10.85;;
51971;SDS011;37991;49.662;10.060;2022-10-31T16:43:43;28.45;;;11.98;;
51971;SDS011;37991;49.662;10.060;2022-10-31T16:46:12;25.17;;;11.48;;
51971;SDS011;37991;49.662;10.060;2022-10-31T16:48:40;27.60;;;11.38;;
51971;SDS011;37991;49.662;10.060;2022-10-31T16:51:06;24.83;;;10.13;;
51971;SDS011;37991;49.662;10.060;2022-10-31T16:53:32;24.63;;;10.95;;
51971;SDS011;37991;49.662;10.060;2022-10-31T16:55:58;21.92;;;11.02;;